Terminal Aerodrome Forecast
Issued by NWS

Home | Current Version | Previous Version | Text Only | Print | Product List | Glossary On
Versions: 1 2 3 4 5 6 7 8 9 10 11 12 13 14 15 16 17 18 19 20
000
FTUS45 KFGZ 172300
TAFGCN
TAF
KGCN 172334Z 1800/1824 36010G18KT P6SM BKN050 BKN070
     FM180100 VRB04KT P6SM BKN050
     FM181600 31008KT P6SM SCT060=

USA.gov is the U.S. government's official web portal to all federal, state and local government web resources and services.